Time;durP1;ratioP1;P1;durP2;ratioP2;P2;SDS_P1;SDS_P2;PMS_P1;PMS_P2;Temp;Humidity;BMP_temperature;BMP_pressure;BME280_temperature;BME280_humidity;BME280_pressure;Samples;Min_cycle;Max_cycle;Signal;HPM_P1;HPM_P2
2022/12/28 00:02:15;;;;;;;;;2.60;2.60;;;;;;;;5191344;28;8865;-73
2022/12/28 00:04:46;;;;;;;;;3.00;3.00;;;;;;;;5191945;28;8796;-73
2022/12/28 00:07:17;;;;;;;;;5.40;5.40;;;;;;;;5187280;28;8904;-73
2022/12/28 00:09:48;;;;;;;;;4.00;4.00;;;;;;;;5188583;28;8992;-73
2022/12/28 00:12:20;;;;;;;;;0.00;0.00;;;;;;;;5204086;28;8817;-73
2022/12/28 00:14:51;;;;;;;;;6.40;6.40;;;;;;;;5187321;28;8779;-73
2022/12/28 00:17:22;;;;;;;;;6.20;6.20;;;;;;;;5187050;28;8992;-72
2022/12/28 00:19:53;;;;;;;;;5.60;5.60;;;;;;;;5203642;28;8856;-73
2022/12/28 00:22:26;;;;;;;;;6.60;6.60;;;;;;;;5203268;28;8806;-73
2022/12/28 00:24:57;;;;;;;;;4.80;4.80;;;;;;;;5186954;28;8901;-72
2022/12/28 00:27:28;;;;;;;;;4.00;4.00;;;;;;;;5203362;28;8795;-74
2022/12/28 00:29:59;;;;;;;;;4.40;4.40;;;;;;;;5203436;28;8949;-74
2022/12/28 00:32:30;;;;;;;;;6.60;6.60;;;;;;;;5187385;28;8921;-73
2022/12/28 00:35:01;;;;;;;;;3.80;3.80;;;;;;;;5187036;28;8806;-74
2022/12/28 00:37:34;;;;;;;;;4.00;4.00;;;;;;;;5187117;28;8799;-73
2022/12/28 00:40:08;;;;;;;;;3.00;3.00;;;;;;;;5203100;28;9541;-73
2022/12/28 00:42:39;;;;;;;;;8.60;8.60;;;;;;;;5186858;28;8803;-73
2022/12/28 00:45:29;;;;;;;;;9.80;9.80;;;;;;;;5201176;28;8786;-73
2022/12/28 00:48:00;;;;;;;;;7.00;7.00;;;;;;;;5202853;28;9604;-73
2022/12/28 00:50:31;;;;;;;;;2.50;2.50;;;;;;;;5186648;28;8953;-72
2022/12/28 00:53:03;;;;;;;;;9.20;6.80;;;;;;;;5202828;28;8795;-72
2022/12/28 00:55:34;;;;;;;;;6.60;5.60;;;;;;;;5186561;28;8787;-73
2022/12/28 00:58:06;;;;;;;;;4.40;4.40;;;;;;;;5186075;28;8787;-73
2022/12/28 01:00:38;;;;;;;;;9.60;9.60;;;;;;;;5187764;28;9623;-73
2022/12/28 01:03:09;;;;;;;;;13.60;12.00;;;;;;;;5202176;28;8806;-73
2022/12/28 01:05:58;;;;;;;;;3.40;3.40;;;;;;;;5189524;28;8812;-72
2022/12/28 01:08:30;;;;;;;;;13.40;13.40;;;;;;;;5206882;28;8773;-72
2022/12/28 01:11:05;;;;;;;;;46.40;33.20;;;;;;;;5190727;28;8828;-72
2022/12/28 01:13:37;;;;;;;;;12.80;11.60;;;;;;;;5208212;28;8765;-72
2022/12/28 01:16:09;;;;;;;;;4.80;4.80;;;;;;;;5173651;28;8808;-74
2022/12/28 01:18:40;;;;;;;;;5.20;4.00;;;;;;;;5189805;28;8789;-73
2022/12/28 01:21:13;;;;;;;;;4.40;4.40;;;;;;;;5189749;28;8862;-72
2022/12/28 01:23:47;;;;;;;;;3.20;3.20;;;;;;;;5209763;28;8859;-73
2022/12/28 01:26:18;;;;;;;;;3.00;3.00;;;;;;;;5200808;28;8796;-74
2022/12/28 01:28:49;;;;;;;;;3.20;2.20;;;;;;;;5195046;28;8923;-74
2022/12/28 01:31:21;;;;;;;;;4.00;4.00;;;;;;;;5206566;28;8793;-74
2022/12/28 01:33:54;;;;;;;;;3.40;3.40;;;;;;;;5189304;28;8815;-74
2022/12/28 01:36:27;;;;;;;;;4.00;4.00;;;;;;;;5189568;28;8846;-74
2022/12/28 01:38:59;;;;;;;;;13.40;12.40;;;;;;;;5189474;28;8773;-74
2022/12/28 01:41:32;;;;;;;;;23.40;22.20;;;;;;;;5189278;28;8801;-74
2022/12/28 01:44:03;;;;;;;;;10.40;9.40;;;;;;;;5206545;28;8777;-73
2022/12/28 01:46:37;;;;;;;;;9.40;9.40;;;;;;;;5189858;28;8769;-73
2022/12/28 01:49:24;;;;;;;;;1.80;1.80;;;;;;;;5189297;28;8777;-73
2022/12/28 01:52:03;;;;;;;;;4.80;4.40;;;;;;;;5206060;28;8777;-72
2022/12/28 01:54:40;;;;;;;;;9.00;8.60;;;;;;;;5189707;28;9480;-72
2022/12/28 01:57:14;;;;;;;;;10.00;10.00;;;;;;;;5205840;28;9500;-72
2022/12/28 01:59:49;;;;;;;;;15.00;13.80;;;;;;;;5189248;28;9512;-73
2022/12/28 02:02:21;;;;;;;;;16.40;15.20;;;;;;;;5189529;28;9523;-72
2022/12/28 02:05:11;;;;;;;;;5.80;5.20;;;;;;;;5206555;28;8785;-73
2022/12/28 02:08:01;;;;;;;;;9.40;9.40;;;;;;;;5172852;28;8812;-70
2022/12/28 02:10:35;;;;;;;;;17.20;15.60;;;;;;;;5188666;28;8904;-71
2022/12/28 02:13:25;;;;;;;;;14.40;14.40;;;;;;;;5206254;28;8757;-71
2022/12/28 02:16:16;;;;;;;;;5.60;5.60;;;;;;;;5191927;28;8813;-71
2022/12/28 02:18:47;;;;;;;;;4.00;4.00;;;;;;;;5189002;28;8789;-71
2022/12/28 02:21:28;;;;;;;;;6.00;6.00;;;;;;;;5187926;28;8808;-71
2022/12/28 02:24:11;;;;;;;;;4.00;4.00;;;;;;;;5188909;28;8781;-71
2022/12/28 02:26:42;;;;;;;;;7.20;7.20;;;;;;;;5188961;28;8792;-72
2022/12/28 02:29:33;;;;;;;;;8.20;7.80;;;;;;;;5188786;28;8858;-72
2022/12/28 02:32:10;;;;;;;;;13.80;12.20;;;;;;;;5188525;28;8793;-72
2022/12/28 02:34:42;;;;;;;;;18.00;17.40;;;;;;;;5188530;28;8869;-72
2022/12/28 02:37:21;;;;;;;;;15.60;15.60;;;;;;;;5188173;28;8991;-72
2022/12/28 02:40:13;;;;;;;;;4.40;4.40;;;;;;;;5188244;28;8843;-73
2022/12/28 02:42:45;;;;;;;;;3.00;3.00;;;;;;;;5188537;28;8826;-72
2022/12/28 02:51:27;;;;;;;;;46.75;43.25;;;;;;;;5205785;28;8773;-72
2022/12/28 02:56:05;;;;;;;;;7.20;7.20;;;;;;;;5188389;28;8761;-74
2022/12/28 02:57:25;;;;;;;;;4.40;4.40;;;;;;;;5188916;28;8777;-74
2022/12/28 02:59:59;;;;;;;;;1.00;1.00;;;;;;;;5188595;28;8799;-75
2022/12/28 03:02:30;;;;;;;;;3.00;3.00;;;;;;;;5187871;28;8816;-76
2022/12/28 03:08:35;;;;;;;;;10.00;10.00;;;;;;;;5187944;28;8831;-75
2022/12/28 03:11:10;;;;;;;;;7.40;6.40;;;;;;;;5187975;28;8773;-71
2022/12/28 03:13:54;;;;;;;;;7.80;7.80;;;;;;;;5187727;28;8777;-70
2022/12/28 03:31:13;;;;;;;;;15.60;15.60;;;;;;;;5181699;28;8850;-74
2022/12/28 03:33:52;;;;;;;;;14.20;12.40;;;;;;;;5215434;28;8785;-74
2022/12/28 03:36:23;;;;;;;;;7.00;7.00;;;;;;;;5199496;28;8815;-76
2022/12/28 03:39:04;;;;;;;;;12.00;11.60;;;;;;;;5206307;28;8835;-77
2022/12/28 03:41:37;;;;;;;;;13.60;13.60;;;;;;;;5188092;28;8816;-76
2022/12/28 03:44:31;;;;;;;;;6.00;5.80;;;;;;;;5171410;28;8766;-76
2022/12/28 03:47:08;;;;;;;;;12.20;12.20;;;;;;;;5187465;28;8884;-76
2022/12/28 03:49:40;;;;;;;;;6.00;6.00;;;;;;;;5187437;28;8793;-76
2022/12/28 03:52:11;;;;;;;;;9.00;9.00;;;;;;;;5187318;28;8824;-75
2022/12/28 03:54:44;;;;;;;;;12.00;11.40;;;;;;;;5187752;28;8858;-75
2022/12/28 03:57:18;;;;;;;;;8.20;8.20;;;;;;;;5186933;28;8789;-75
2022/12/28 03:59:52;;;;;;;;;16.20;15.00;;;;;;;;5187901;28;9507;-76
2022/12/28 04:02:42;;;;;;;;;15.00;15.00;;;;;;;;5204593;28;8843;-75
2022/12/28 04:05:14;;;;;;;;;6.20;6.20;;;;;;;;5203903;28;8904;-76
2022/12/28 04:07:46;;;;;;;;;8.20;8.20;;;;;;;;5187010;28;8878;-77
2022/12/28 04:10:35;;;;;;;;;4.40;4.40;;;;;;;;5187757;28;8770;-77
2022/12/28 04:13:06;;;;;;;;;0.00;0.00;;;;;;;;5187828;28;8797;-77
2022/12/28 04:16:09;;;;;;;;;4.00;4.00;;;;;;;;5205135;28;8793;-79
2022/12/28 04:19:03;;;;;;;;;11.80;11.80;;;;;;;;5207140;28;8870;-75
2022/12/28 04:21:53;;;;;;;;;20.40;20.20;;;;;;;;5186463;28;8892;-75
2022/12/28 04:24:24;;;;;;;;;20.60;20.60;;;;;;;;5187215;28;8823;-74
2022/12/28 04:26:55;;;;;;;;;8.20;8.20;;;;;;;;5171331;28;8854;-75
2022/12/28 04:29:27;;;;;;;;;15.60;15.60;;;;;;;;5171843;28;8769;-75
2022/12/28 04:32:36;;;;;;;;;16.20;15.00;;;;;;;;5199307;28;8817;-75
2022/12/28 04:35:10;;;;;;;;;7.00;6.00;;;;;;;;5197667;28;8806;-73
2022/12/28 04:37:49;;;;;;;;;7.00;7.00;;;;;;;;5207413;28;8880;-73
2022/12/28 04:40:24;;;;;;;;;7.00;7.00;;;;;;;;5226377;28;8806;-71
2022/12/28 04:42:55;;;;;;;;;5.60;5.60;;;;;;;;5212782;28;8815;-74
2022/12/28 04:45:26;;;;;;;;;4.00;4.00;;;;;;;;5195225;28;8787;-74
2022/12/28 04:47:57;;;;;;;;;6.00;6.00;;;;;;;;5211217;28;8825;-74
2022/12/28 04:50:28;;;;;;;;;1.00;1.00;;;;;;;;5230013;28;8791;-76
2022/12/28 04:52:59;;;;;;;;;6.00;6.00;;;;;;;;5210852;28;9257;-73
2022/12/28 04:55:30;;;;;;;;;3.40;3.40;;;;;;;;5194580;28;8791;-68
2022/12/28 04:58:02;;;;;;;;;6.20;6.20;;;;;;;;5228067;28;8938;-67
2022/12/28 05:00:51;;;;;;;;;9.40;7.00;;;;;;;;5229138;28;8787;-67
2022/12/28 05:08:18;;;;;;;;;9.20;9.20;;;;;;;;5185273;28;9023;-66
2022/12/28 05:15:11;;;;;;;;;6.20;6.20;;;;;;;;5186593;28;8715;-68
2022/12/28 05:17:42;;;;;;;;;16.20;15.20;;;;;;;;5169478;28;9474;-68
2022/12/28 05:20:14;;;;;;;;;24.00;22.25;;;;;;;;5186764;28;8917;-68
2022/12/28 05:22:45;;;;;;;;;9.20;9.00;;;;;;;;5170087;28;11600;-68
2022/12/28 05:25:17;;;;;;;;;10.20;10.20;;;;;;;;5185752;28;8783;-68
2022/12/28 05:28:06;;;;;;;;;7.40;7.40;;;;;;;;5186371;28;9475;-66
2022/12/28 05:35:01;;;;;;;;;6.00;6.00;;;;;;;;5186695;28;11473;-69
2022/12/28 05:37:33;;;;;;;;;9.80;9.80;;;;;;;;5186866;28;8822;-67
2022/12/28 05:40:04;;;;;;;;;8.00;7.50;;;;;;;;5169728;28;8791;-69
2022/12/28 05:42:35;;;;;;;;;14.60;14.60;;;;;;;;5151918;28;9454;-70
2022/12/28 05:45:07;;;;;;;;;4.00;4.00;;;;;;;;5153473;28;8873;-68
2022/12/28 05:47:37;;;;;;;;;3.60;3.60;;;;;;;;5185355;28;8775;-67
2022/12/28 05:53:57;;;;;;;;;11.60;11.60;;;;;;;;5184756;28;8811;-70
2022/12/28 05:56:29;;;;;;;;;11.60;11.60;;;;;;;;5166222;28;8795;-69
2022/12/28 06:03:24;;;;;;;;;6.00;6.00;;;;;;;;5185831;28;8791;-69
2022/12/28 06:10:18;;;;;;;;;7.40;7.00;;;;;;;;5217656;28;8807;-69
2022/12/28 06:12:49;;;;;;;;;2.40;2.40;;;;;;;;5209157;28;8913;-69
2022/12/28 06:20:14;;;;;;;;;15.00;15.00;;;;;;;;5201924;28;8871;-73
2022/12/28 06:22:46;;;;;;;;;13.60;13.40;;;;;;;;5209125;28;8810;-73
2022/12/28 06:29:41;;;;;;;;;10.00;10.00;;;;;;;;5223640;28;8792;-72
2022/12/28 06:32:13;;;;;;;;;6.20;6.20;;;;;;;;5209588;28;8797;-72
2022/12/28 06:34:44;;;;;;;;;5.60;5.60;;;;;;;;5209528;28;8784;-73
2022/12/28 06:37:15;;;;;;;;;7.00;7.00;;;;;;;;5208927;28;8807;-73
2022/12/28 06:39:47;;;;;;;;;8.00;7.60;;;;;;;;5192617;28;8801;-67
2022/12/28 06:42:18;;;;;;;;;18.50;18.00;;;;;;;;5192925;28;8807;-71
2022/12/28 06:44:49;;;;;;;;;7.40;6.60;;;;;;;;5226618;28;8773;-71
2022/12/28 06:47:38;;;;;;;;;4.20;4.20;;;;;;;;5209193;28;8760;-72
2022/12/28 06:50:28;;;;;;;;;1.80;1.80;;;;;;;;5212119;28;8849;-72
2022/12/28 06:52:59;;;;;;;;;7.00;6.80;;;;;;;;5227558;28;8779;-72
2022/12/28 06:55:30;;;;;;;;;3.40;3.40;;;;;;;;5209558;28;8768;-72
2022/12/28 06:58:01;;;;;;;;;6.50;6.25;;;;;;;;5192809;28;8780;-71
2022/12/28 07:00:51;;;;;;;;;25.80;24.60;;;;;;;;5212269;28;8808;-70
2022/12/28 07:03:23;;;;;;;;;16.80;16.20;;;;;;;;5176328;28;8800;-70
2022/12/28 07:05:58;;;;;;;;;17.00;17.00;;;;;;;;5175766;28;9463;-71
2022/12/28 07:08:30;;;;;;;;;7.20;7.20;;;;;;;;5192973;28;8765;-71
2022/12/28 07:11:05;;;;;;;;;1.00;1.00;;;;;;;;5192112;28;8768;-72
2022/12/28 07:13:37;;;;;;;;;3.80;3.80;;;;;;;;5192294;28;8752;-71
2022/12/28 07:16:16;;;;;;;;;17.60;17.20;;;;;;;;5192256;28;8765;-71
2022/12/28 07:18:47;;;;;;;;;16.40;16.00;;;;;;;;5192691;28;8764;-71
2022/12/28 07:21:20;;;;;;;;;26.60;26.60;;;;;;;;5192102;28;8789;-72
2022/12/28 07:23:53;;;;;;;;;24.00;23.40;;;;;;;;5191904;28;8791;-72
2022/12/28 07:26:26;;;;;;;;;19.20;19.20;;;;;;;;5192646;28;8783;-71
2022/12/28 07:28:59;;;;;;;;;6.80;6.80;;;;;;;;5208177;28;8803;-71
2022/12/28 07:31:49;;;;;;;;;4.00;3.60;;;;;;;;5208118;28;8796;-72
2022/12/28 07:34:20;;;;;;;;;6.00;6.00;;;;;;;;5192345;28;8796;-72
2022/12/28 07:36:51;;;;;;;;;11.40;10.60;;;;;;;;5226231;28;8807;-71
2022/12/28 07:39:41;;;;;;;;;16.00;16.00;;;;;;;;5194422;28;8784;-71
2022/12/28 07:42:30;;;;;;;;;15.80;15.80;;;;;;;;5211421;28;9502;-69
2022/12/28 07:45:02;;;;;;;;;7.40;7.40;;;;;;;;5191702;28;8891;-71
2022/12/28 07:47:34;;;;;;;;;3.20;3.20;;;;;;;;5175664;28;8780;-70
2022/12/28 07:50:05;;;;;;;;;15.00;8.60;;;;;;;;5175340;28;8926;-72
2022/12/28 07:52:37;;;;;;;;;3.00;3.00;;;;;;;;5192124;28;8918;-71
2022/12/28 07:55:08;;;;;;;;;6.00;6.00;;;;;;;;5209020;28;8899;-71
2022/12/28 07:57:39;;;;;;;;;8.60;8.60;;;;;;;;5193006;28;9543;-72
2022/12/28 08:00:11;;;;;;;;;22.40;20.60;;;;;;;;5175503;28;8781;-72
2022/12/28 08:02:45;;;;;;;;;19.40;19.40;;;;;;;;5208336;28;9573;-71
2022/12/28 08:05:34;;;;;;;;;1.80;1.80;;;;;;;;5193813;28;8764;-71
2022/12/28 08:08:05;;;;;;;;;1.50;1.50;;;;;;;;5191571;28;8791;-71
2022/12/28 08:10:36;;;;;;;;;3.00;3.00;;;;;;;;5207411;28;8808;-71
2022/12/28 08:13:07;;;;;;;;;0.00;0.00;;;;;;;;5225726;28;8838;-69
2022/12/28 08:15:38;;;;;;;;;1.80;1.80;;;;;;;;5207973;28;11368;-71
2022/12/28 08:18:12;;;;;;;;;10.00;10.00;;;;;;;;5209142;28;8768;-70
2022/12/28 08:20:43;;;;;;;;;6.00;6.00;;;;;;;;5195160;28;8809;-71
2022/12/28 08:23:14;;;;;;;;;12.60;12.60;;;;;;;;5195516;28;8892;-71
2022/12/28 08:26:04;;;;;;;;;5.80;4.00;;;;;;;;5212104;28;8938;-71
2022/12/28 08:28:35;;;;;;;;;19.00;17.40;;;;;;;;5212069;28;8780;-71
2022/12/28 08:31:08;;;;;;;;;21.40;21.40;;;;;;;;5211864;28;8807;-71
2022/12/28 08:33:39;;;;;;;;;32.20;32.20;;;;;;;;5211895;28;8854;-71
2022/12/28 08:36:10;;;;;;;;;26.40;24.20;;;;;;;;5178874;28;9499;-71
2022/12/28 08:38:45;;;;;;;;;19.80;19.80;;;;;;;;5195162;28;8784;-72
2022/12/28 08:41:24;;;;;;;;;9.00;9.00;;;;;;;;5180897;28;8812;-71
2022/12/28 08:43:57;;;;;;;;;4.40;4.40;;;;;;;;5178449;28;8768;-71
2022/12/28 08:46:46;;;;;;;;;2.20;1.00;;;;;;;;5197981;28;9456;-71
2022/12/28 08:49:17;;;;;;;;;9.00;9.00;;;;;;;;5178693;28;8784;-72
2022/12/28 08:51:48;;;;;;;;;3.00;3.00;;;;;;;;5211140;28;9529;-72
2022/12/28 08:54:19;;;;;;;;;0.20;0.20;;;;;;;;5194992;28;11325;-72
2022/12/28 08:56:51;;;;;;;;;32.60;29.60;;;;;;;;5178709;28;8787;-73
2022/12/28 08:59:41;;;;;;;;;2.60;2.60;;;;;;;;5197550;28;8894;-72
2022/12/28 09:02:12;;;;;;;;;13.80;13.80;;;;;;;;5195851;28;9434;-72
2022/12/28 09:05:02;;;;;;;;;6.00;6.00;;;;;;;;5197070;28;8769;-72
2022/12/28 09:07:33;;;;;;;;;4.00;4.00;;;;;;;;5178543;28;9598;-71
2022/12/28 09:10:22;;;;;;;;;9.60;9.60;;;;;;;;5193085;28;8788;-71
2022/12/28 09:12:53;;;;;;;;;9.25;9.00;;;;;;;;5190750;28;8812;-71
2022/12/28 09:15:24;;;;;;;;;11.20;11.20;;;;;;;;5190047;28;8862;-72
2022/12/28 09:17:55;;;;;;;;;12.00;12.00;;;;;;;;5190112;28;8789;-71
2022/12/28 09:20:26;;;;;;;;;10.40;9.40;;;;;;;;5190207;28;8776;-71
2022/12/28 09:23:00;;;;;;;;;8.80;8.80;;;;;;;;5190468;28;8836;-73
2022/12/28 09:25:49;;;;;;;;;7.80;7.40;;;;;;;;5192739;28;8804;-72
2022/12/28 09:28:20;;;;;;;;;7.50;6.75;;;;;;;;5190131;28;8796;-72
2022/12/28 09:30:51;;;;;;;;;17.80;16.00;;;;;;;;5172455;28;11438;-72
2022/12/28 09:36:12;;;;;;;;;9.60;9.60;;;;;;;;5190682;28;10663;-72
2022/12/28 09:38:44;;;;;;;;;18.60;18.60;;;;;;;;5206611;28;8821;-73
2022/12/28 09:41:27;;;;;;;;;5.80;5.80;;;;;;;;5191507;28;8831;-72
2022/12/28 09:44:32;;;;;;;;;3.00;3.00;;;;;;;;5201761;28;8851;-73
2022/12/28 09:47:16;;;;;;;;;0.00;0.00;;;;;;;;5199525;28;8816;-70
2022/12/28 09:50:05;;;;;;;;;4.80;4.80;;;;;;;;5198220;28;8879;-72
2022/12/28 09:52:41;;;;;;;;;9.20;9.20;;;;;;;;5207089;28;8785;-72
2022/12/28 09:55:17;;;;;;;;;41.80;41.80;;;;;;;;5174452;28;8787;-72
2022/12/28 09:57:53;;;;;;;;;17.20;16.00;;;;;;;;5190685;28;8788;-72
2022/12/28 10:00:27;;;;;;;;;3.80;3.80;;;;;;;;5189538;28;8788;-71
2022/12/28 10:03:18;;;;;;;;;1.00;1.00;;;;;;;;5205805;28;8890;-72
2022/12/28 10:05:50;;;;;;;;;16.80;16.00;;;;;;;;5188415;28;8899;-72
2022/12/28 10:08:22;;;;;;;;;6.60;6.60;;;;;;;;5188854;28;8800;-72
2022/12/28 10:10:58;;;;;;;;;2.60;2.60;;;;;;;;5189356;28;9220;-72
2022/12/28 10:13:52;;;;;;;;;14.40;14.40;;;;;;;;5175066;28;8859;-71
2022/12/28 10:16:41;;;;;;;;;10.00;10.00;;;;;;;;5191602;28;8785;-72
2022/12/28 10:19:16;;;;;;;;;11.60;11.60;;;;;;;;5189612;28;8795;-72
2022/12/28 10:22:15;;;;;;;;;9.20;8.60;;;;;;;;5190480;28;8821;-70
2022/12/28 10:24:47;;;;;;;;;6.40;6.40;;;;;;;;5189063;28;8814;-71
2022/12/28 10:27:36;;;;;;;;;41.80;40.80;;;;;;;;5175082;28;8781;-71
2022/12/28 10:30:16;;;;;;;;;5.60;5.60;;;;;;;;5172634;28;9484;-72
2022/12/28 10:32:52;;;;;;;;;1.00;1.00;;;;;;;;5172354;28;8770;-71
2022/12/28 10:35:41;;;;;;;;;3.00;3.00;;;;;;;;5173539;28;8800;-72
2022/12/28 10:38:32;;;;;;;;;3.20;3.20;;;;;;;;5172532;28;8805;-70
2022/12/28 10:41:03;;;;;;;;;3.40;2.60;;;;;;;;5154926;28;8839;-71
2022/12/28 10:43:36;;;;;;;;;3.40;3.40;;;;;;;;5172034;28;9575;-71
2022/12/28 10:46:25;;;;;;;;;4.00;4.00;;;;;;;;5175024;28;8769;-70
2022/12/28 10:49:02;;;;;;;;;9.80;9.80;;;;;;;;5172066;28;8925;-71
2022/12/28 10:51:35;;;;;;;;;19.80;19.80;;;;;;;;5188095;28;8789;-71
2022/12/28 10:54:21;;;;;;;;;9.00;9.00;;;;;;;;5171849;28;8785;-72
2022/12/28 10:57:17;;;;;;;;;6.00;4.40;;;;;;;;5174303;28;8785;-73
2022/12/28 10:59:49;;;;;;;;;3.00;3.00;;;;;;;;5205603;28;8797;-70
2022/12/28 11:02:23;;;;;;;;;3.00;3.00;;;;;;;;5155713;28;8805;-70
2022/12/28 11:04:56;;;;;;;;;3.00;3.00;;;;;;;;5172006;28;8797;-71
2022/12/28 11:07:46;;;;;;;;;2.60;2.60;;;;;;;;5174731;28;8773;-71
2022/12/28 11:10:23;;;;;;;;;1.00;1.00;;;;;;;;5223624;28;8947;-71
2022/12/28 11:12:55;;;;;;;;;2.20;2.20;;;;;;;;5192828;28;8789;-71
2022/12/28 11:15:31;;;;;;;;;3.00;3.00;;;;;;;;5225394;28;8812;-71
2022/12/28 11:18:20;;;;;;;;;3.00;3.00;;;;;;;;5225363;28;8781;-71
2022/12/28 11:20:52;;;;;;;;;7.80;7.80;;;;;;;;5208543;28;9448;-72
2022/12/28 11:23:42;;;;;;;;;6.60;6.60;;;;;;;;5224779;28;8793;-72
2022/12/28 11:26:13;;;;;;;;;1.00;1.00;;;;;;;;5208131;28;8790;-72
2022/12/28 11:29:03;;;;;;;;;2.20;2.20;;;;;;;;5224926;28;8777;-72
2022/12/28 11:31:36;;;;;;;;;1.00;1.00;;;;;;;;5208190;28;8826;-70
2022/12/28 11:34:13;;;;;;;;;0.80;0.80;;;;;;;;5191835;28;8789;-71
2022/12/28 11:36:45;;;;;;;;;2.20;2.20;;;;;;;;5191699;28;8809;-71
2022/12/28 11:39:25;;;;;;;;;3.20;3.20;;;;;;;;5191146;28;8911;-72
2022/12/28 11:50:35;;;;;;;;;3.00;3.00;;;;;;;;5203765;28;9531;-71
2022/12/28 11:57:48;;;;;;;;;3.00;3.00;;;;;;;;5208672;28;8744;-70
2022/12/28 12:04:45;;;;;;;;;5.60;5.60;;;;;;;;5208774;28;8804;-72
2022/12/28 12:11:50;;;;;;;;;10.80;10.80;;;;;;;;5207169;28;8827;-72
2022/12/28 12:14:41;;;;;;;;;3.00;3.00;;;;;;;;5207569;28;8867;-73
2022/12/28 12:17:20;;;;;;;;;4.00;4.00;;;;;;;;5207126;28;8768;-73
2022/12/28 12:19:53;;;;;;;;;24.60;23.80;;;;;;;;5207544;28;8932;-73
2022/12/28 12:22:50;;;;;;;;;3.20;3.20;;;;;;;;5193704;28;8845;-72
2022/12/28 12:25:30;;;;;;;;;0.00;0.00;;;;;;;;5208596;28;8804;-72
2022/12/28 12:28:13;;;;;;;;;4.00;3.60;;;;;;;;5191098;28;8854;-72
2022/12/28 12:30:45;;;;;;;;;13.40;12.60;;;;;;;;5207785;28;8844;-68
2022/12/28 12:33:26;;;;;;;;;8.60;8.60;;;;;;;;5191597;28;9525;-72
2022/12/28 12:36:06;;;;;;;;;3.80;3.80;;;;;;;;5207685;28;8788;-73
2022/12/28 12:38:57;;;;;;;;;7.80;7.80;;;;;;;;5190776;28;8822;-69
2022/12/28 12:41:41;;;;;;;;;69.75;54.25;;;;;;;;5207432;28;8834;-73
2022/12/28 12:44:15;;;;;;;;;15.80;15.80;;;;;;;;5207617;28;8805;-72
2022/12/28 12:47:15;;;;;;;;;3.60;3.60;;;;;;;;5190540;28;8788;-73
2022/12/28 12:49:58;;;;;;;;;2.20;2.20;;;;;;;;5182350;28;9496;-71
2022/12/28 12:52:32;;;;;;;;;3.60;3.60;;;;;;;;5190543;28;8784;-72
2022/12/28 12:55:19;;;;;;;;;1.00;1.00;;;;;;;;5190507;28;8799;-72
2022/12/28 12:57:53;;;;;;;;;3.00;3.00;;;;;;;;5190956;28;8899;-72
2022/12/28 13:00:30;;;;;;;;;3.40;3.40;;;;;;;;5190628;28;8938;-73
2022/12/28 13:03:04;;;;;;;;;6.20;6.20;;;;;;;;5207172;28;8824;-73
2022/12/28 13:05:38;;;;;;;;;5.80;5.60;;;;;;;;5191729;28;8800;-73
2022/12/28 13:08:16;;;;;;;;;3.60;3.60;;;;;;;;5206352;28;8938;-72
2022/12/28 13:10:51;;;;;;;;;3.40;3.40;;;;;;;;5206882;28;8820;-72
2022/12/28 13:13:36;;;;;;;;;6.00;6.00;;;;;;;;5206296;28;8803;-72
2022/12/28 13:16:09;;;;;;;;;2.60;2.60;;;;;;;;5175158;28;8784;-73
2022/12/28 13:18:50;;;;;;;;;19.00;18.20;;;;;;;;5173976;28;8792;-73
2022/12/28 13:21:26;;;;;;;;;15.20;15.20;;;;;;;;5190060;28;8812;-71
2022/12/28 13:23:57;;;;;;;;;4.40;4.40;;;;;;;;5190537;28;8772;-72
2022/12/28 13:26:47;;;;;;;;;3.00;2.20;;;;;;;;5206613;28;8803;-71
2022/12/28 13:30:01;;;;;;;;;5.20;5.20;;;;;;;;5206757;28;8777;-72
2022/12/28 13:32:54;;;;;;;;;1.00;1.00;;;;;;;;5190278;28;8792;-72
2022/12/28 13:35:27;;;;;;;;;8.60;7.40;;;;;;;;5189549;28;8928;-71
2022/12/28 13:38:11;;;;;;;;;11.20;11.20;;;;;;;;5206602;28;8780;-72
2022/12/28 13:40:55;;;;;;;;;9.00;9.00;;;;;;;;5206530;28;8795;-72
2022/12/28 13:43:44;;;;;;;;;1.40;1.00;;;;;;;;5206936;28;9467;-73
2022/12/28 13:46:21;;;;;;;;;2.60;2.60;;;;;;;;5207829;28;8786;-72
2022/12/28 13:49:12;;;;;;;;;12.80;12.80;;;;;;;;5222118;28;8776;-72
2022/12/28 13:51:53;;;;;;;;;21.50;20.25;;;;;;;;5221255;28;8808;-72
2022/12/28 13:57:29;;;;;;;;;21.20;21.00;;;;;;;;5205230;28;9488;-73
2022/12/28 14:00:19;;;;;;;;;2.00;1.80;;;;;;;;5205826;28;8785;-72
2022/12/28 14:02:53;;;;;;;;;4.00;4.00;;;;;;;;5206023;28;8816;-74
2022/12/28 14:05:27;;;;;;;;;6.80;6.80;;;;;;;;5205691;28;8788;-74
2022/12/28 14:08:43;;;;;;;;;3.00;3.00;;;;;;;;5217136;28;8772;-72
2022/12/28 14:11:15;;;;;;;;;0.60;0.60;;;;;;;;5207159;28;8851;-72
2022/12/28 14:14:05;;;;;;;;;5.20;5.20;;;;;;;;5205472;28;8824;-72
2022/12/28 14:16:37;;;;;;;;;4.80;4.80;;;;;;;;5188240;28;8807;-73
2022/12/28 14:19:08;;;;;;;;;9.00;9.00;;;;;;;;5189293;28;8792;-72
2022/12/28 14:21:44;;;;;;;;;9.60;9.40;;;;;;;;5188858;28;8816;-72
2022/12/28 14:24:15;;;;;;;;;3.80;3.80;;;;;;;;5206111;28;8828;-73
2022/12/28 14:26:46;;;;;;;;;11.20;11.20;;;;;;;;5206412;28;8777;-71
2022/12/28 14:29:27;;;;;;;;;3.00;3.00;;;;;;;;5189515;28;8798;-71
2022/12/28 14:31:59;;;;;;;;;4.80;4.80;;;;;;;;5205969;28;8793;-72
2022/12/28 14:34:32;;;;;;;;;5.20;4.00;;;;;;;;5172351;28;8811;-72
2022/12/28 14:37:21;;;;;;;;;3.00;3.00;;;;;;;;5222224;28;9629;-72
2022/12/28 14:40:17;;;;;;;;;3.00;3.00;;;;;;;;5207726;28;9589;-72
2022/12/28 14:42:52;;;;;;;;;3.80;3.80;;;;;;;;5205062;28;8870;-72
2022/12/28 14:45:41;;;;;;;;;4.00;4.00;;;;;;;;5205048;28;8792;-72
2022/12/28 14:48:39;;;;;;;;;6.60;6.20;;;;;;;;5172594;28;9465;-73
2022/12/28 14:51:16;;;;;;;;;6.60;4.40;;;;;;;;5186260;28;8943;-72
2022/12/28 14:54:07;;;;;;;;;6.00;6.00;;;;;;;;5188541;28;8788;-73
2022/12/28 14:56:38;;;;;;;;;6.00;6.00;;;;;;;;5180867;28;8850;-73
2022/12/28 14:59:35;;;;;;;;;15.00;14.60;;;;;;;;5205216;28;9592;-73
2022/12/28 15:02:26;;;;;;;;;26.40;23.80;;;;;;;;5180035;28;8842;-71
2022/12/28 15:04:57;;;;;;;;;15.60;14.20;;;;;;;;5204565;28;8815;-73
2022/12/28 15:07:31;;;;;;;;;9.00;9.00;;;;;;;;5204151;28;8788;-73
2022/12/28 15:10:02;;;;;;;;;7.00;7.00;;;;;;;;5204120;28;8816;-73
2022/12/28 15:12:34;;;;;;;;;6.00;6.00;;;;;;;;5204360;28;9523;-73
2022/12/28 15:15:24;;;;;;;;;10.40;10.40;;;;;;;;5204131;28;8799;-73
2022/12/28 15:17:55;;;;;;;;;6.40;6.40;;;;;;;;5188686;28;8816;-72
2022/12/28 15:20:27;;;;;;;;;1.00;0.00;;;;;;;;5187579;28;8895;-73
2022/12/28 15:22:58;;;;;;;;;3.20;3.20;;;;;;;;5187608;28;8835;-74
2022/12/28 15:25:31;;;;;;;;;6.00;6.00;;;;;;;;5204403;28;8792;-74
2022/12/28 15:28:03;;;;;;;;;6.60;6.60;;;;;;;;5204138;28;8854;-74
2022/12/28 15:30:37;;;;;;;;;11.60;10.00;;;;;;;;5187632;28;8800;-74
2022/12/28 15:33:09;;;;;;;;;12.20;12.20;;;;;;;;5203950;28;8784;-73
2022/12/28 15:35:41;;;;;;;;;6.00;6.00;;;;;;;;5204282;28;8792;-73
2022/12/28 15:38:13;;;;;;;;;6.00;6.00;;;;;;;;5204050;28;8798;-73
2022/12/28 15:40:46;;;;;;;;;6.80;6.80;;;;;;;;5203962;28;8823;-73
2022/12/28 15:43:17;;;;;;;;;25.00;25.00;;;;;;;;5187746;28;8844;-72
2022/12/28 15:45:52;;;;;;;;;8.20;7.20;;;;;;;;5204416;28;8819;-72
2022/12/28 15:48:24;;;;;;;;;8.00;7.80;;;;;;;;5204327;28;8826;-73
2022/12/28 15:50:55;;;;;;;;;4.40;4.40;;;;;;;;5203884;28;8966;-73
2022/12/28 15:53:26;;;;;;;;;4.80;4.80;;;;;;;;5188166;28;8813;-73
2022/12/28 15:55:59;;;;;;;;;0.20;0.20;;;;;;;;5188145;28;8804;-72
2022/12/28 15:58:30;;;;;;;;;6.20;6.20;;;;;;;;5195513;28;8934;-72
2022/12/28 16:01:01;;;;;;;;;11.80;9.20;;;;;;;;5198393;28;8800;-73
2022/12/28 16:03:37;;;;;;;;;11.40;11.40;;;;;;;;5231203;28;8781;-72
2022/12/28 16:06:08;;;;;;;;;13.25;11.75;;;;;;;;5191995;28;8837;-73
2022/12/28 16:08:40;;;;;;;;;12.20;12.20;;;;;;;;5193671;28;11588;-73
2022/12/28 16:11:13;;;;;;;;;12.60;12.40;;;;;;;;5208717;28;8859;-75
2022/12/28 16:13:51;;;;;;;;;7.00;7.00;;;;;;;;5205356;28;8823;-75
2022/12/28 16:16:27;;;;;;;;;12.80;12.00;;;;;;;;5189414;28;8827;-75
2022/12/28 16:18:58;;;;;;;;;3.00;3.00;;;;;;;;5220604;28;8927;-75
2022/12/28 16:21:29;;;;;;;;;5.60;5.60;;;;;;;;5204195;28;8820;-76
2022/12/28 16:24:00;;;;;;;;;4.40;4.40;;;;;;;;5203770;28;8858;-75
2022/12/28 16:26:32;;;;;;;;;2.60;2.60;;;;;;;;5187959;28;8781;-75
2022/12/28 16:29:03;;;;;;;;;7.00;6.60;;;;;;;;5203960;28;8799;-72
2022/12/28 16:31:35;;;;;;;;;6.40;6.00;;;;;;;;5187048;28;8796;-73
2022/12/28 16:34:12;;;;;;;;;4.40;4.40;;;;;;;;5186810;28;8804;-75
2022/12/28 16:36:46;;;;;;;;;5.60;5.60;;;;;;;;5220361;28;8895;-72
2022/12/28 16:39:19;;;;;;;;;7.00;7.00;;;;;;;;5205068;28;8837;-72
2022/12/28 16:41:50;;;;;;;;;5.20;5.20;;;;;;;;5190643;28;8830;-73
2022/12/28 16:48:44;;;;;;;;;6.60;6.60;;;;;;;;5208158;28;8744;-74
2022/12/28 16:51:15;;;;;;;;;6.00;6.00;;;;;;;;5208264;28;8776;-72
2022/12/28 16:53:47;;;;;;;;;4.60;4.40;;;;;;;;5207001;28;8814;-73
2022/12/28 16:56:20;;;;;;;;;3.20;3.20;;;;;;;;5206845;28;9490;-73
2022/12/28 16:58:55;;;;;;;;;7.20;7.20;;;;;;;;5206931;28;8796;-74
2022/12/28 17:01:45;;;;;;;;;5.20;5.20;;;;;;;;5206942;28;8839;-75
2022/12/28 17:04:35;;;;;;;;;6.40;6.00;;;;;;;;5207046;28;9613;-74
2022/12/28 17:07:05;;;;;;;;;5.75;5.75;;;;;;;;5206726;28;8828;-74
2022/12/28 17:09:36;;;;;;;;;4.00;4.00;;;;;;;;5206466;28;8793;-74
2022/12/28 17:12:08;;;;;;;;;5.50;5.50;;;;;;;;5206806;28;8912;-75
2022/12/28 17:14:39;;;;;;;;;9.60;9.40;;;;;;;;5206216;28;9295;-75
2022/12/28 17:17:28;;;;;;;;;4.40;4.40;;;;;;;;5206789;28;8811;-72
2022/12/28 17:19:59;;;;;;;;;7.60;7.60;;;;;;;;5206495;28;8792;-75